Terminal Aerodrome Forecast
Issued by NWS Denver/Boulder, CO

Home | Current Version | Previous Version | Text Only | Print | Product List | Glossary On
Versions: 1 2 3 4 5 6 7 8 9 10 11 12 13 14 15 16 17 18 19 20 21 22 23 24 25 26 27 28 29 30 31 32 33 34 35 36 37 38 39 40 41 42 43 44 45 46 47 48 49 50
000
FTUS45 KBOU 020304 AAA
TAFDEN
TAF AMD
KDEN 020304Z 0203/0306 25005KT P6SM FEW050 SCT120 BKN220
     FM020500 20006KT P6SM SCT035 BKN100
     FM021000 22005KT P6SM VCFG FEW010 SCT100
     FM021500 VRB05KT P6SM FEW100 SCT220
     FM021800 08006KT P6SM SCT060 SCT220
     FM022300 13005KT P6SM FEW070 SCT220
     FM030300 21008KT P6SM FEW060 SCT220=

USA.gov is the U.S. government's official web portal to all federal, state and local government web resources and services.